createdAt,value
2023-03-22T00:01:13.982Z,12.40
2023-03-22T00:04:17.238Z,14.82
2023-03-22T00:07:20.714Z,14.40
2023-03-22T00:10:29.087Z,14.75
2023-03-22T00:13:35.465Z,12.68
2023-03-22T00:16:38.972Z,13.60
2023-03-22T00:19:42.317Z,14.18
2023-03-22T00:22:46.001Z,12.83
2023-03-22T00:25:49.274Z,12.93
2023-03-22T00:28:52.572Z,12.60
2023-03-22T00:31:56.401Z,14.57
2023-03-22T00:34:59.676Z,14.05
2023-03-22T00:38:06.175Z,14.10
2023-03-22T00:41:21.033Z,12.85
2023-03-22T00:44:24.446Z,15.88
2023-03-22T00:47:27.785Z,13.90
2023-03-22T00:50:31.161Z,14.82
2023-03-22T00:53:36.573Z,13.60
2023-03-22T00:56:39.923Z,13.00
2023-03-22T00:59:48.778Z,16.08
2023-03-22T01:02:59.696Z,14.73
2023-03-22T01:06:03.692Z,17.50
2023-03-22T01:09:07.029Z,14.33
2023-03-22T01:12:10.770Z,16.17
2023-03-22T01:15:14.163Z,16.92
2023-03-22T01:18:17.917Z,15.23
2023-03-22T01:21:21.150Z,13.90
2023-03-22T01:24:26.928Z,14.63
2023-03-22T01:27:30.351Z,18.65
2023-03-22T01:30:33.810Z,17.73
2023-03-22T01:33:37.816Z,22.02
2023-03-22T01:36:41.278Z,18.08
2023-03-22T01:39:44.982Z,17.97
2023-03-22T01:42:52.585Z,24.35
2023-03-22T01:45:57.682Z,14.82
2023-03-22T01:49:09.145Z,16.48
2023-03-22T01:52:15.937Z,17.65
2023-03-22T01:55:28.137Z,15.73
2023-03-22T01:58:52.347Z,15.35
2023-03-22T02:02:03.120Z,17.45
2023-03-22T02:05:07.034Z,17.55
2023-03-22T02:08:10.557Z,17.88
2023-03-22T02:11:49.181Z,17.30
2023-03-22T02:15:24.188Z,15.45
2023-03-22T02:18:50.335Z,18.15
2023-03-22T02:22:14.357Z,17.77
2023-03-22T02:25:47.620Z,18.23
2023-03-22T02:29:02.691Z,16.70
2023-03-22T02:32:34.772Z,19.48
2023-03-22T02:35:59.481Z,17.95
2023-03-22T02:39:13.704Z,20.83
2023-03-22T02:42:42.835Z,16.30
2023-03-22T02:45:59.322Z,18.10
2023-03-22T02:49:16.677Z,21.27
2023-03-22T02:52:49.173Z,18.05
2023-03-22T02:56:06.201Z,18.60
2023-03-22T02:59:11.845Z,18.52
2023-03-22T03:02:18.527Z,20.40
2023-03-22T03:05:24.392Z,17.63
2023-03-22T03:08:30.738Z,19.17
2023-03-22T03:11:36.706Z,17.07
2023-03-22T03:14:42.182Z,19.05
2023-03-22T03:18:23.229Z,17.60
2023-03-22T03:21:56.541Z,19.70
2023-03-22T03:25:33.045Z,17.45
2023-03-22T03:28:59.980Z,18.07
2023-03-22T03:32:06.745Z,16.75
2023-03-22T03:35:42.244Z,18.00
2023-03-22T03:38:52.064Z,18.30
2023-03-22T03:41:56.949Z,17.73
2023-03-22T03:45:01.053Z,17.27
2023-03-22T03:48:18.370Z,18.30
2023-03-22T03:51:21.849Z,18.85
2023-03-22T03:54:25.509Z,17.80
2023-03-22T03:57:29.115Z,20.40
2023-03-22T04:00:32.466Z,19.23
2023-03-22T04:04:07.901Z,18.33
2023-03-22T04:07:27.396Z,17.97
2023-03-22T04:10:30.876Z,18.88
2023-03-22T04:13:34.125Z,20.95
2023-03-22T04:16:41.825Z,19.13
2023-03-22T04:19:48.651Z,18.15
2023-03-22T04:22:52.761Z,19.95
2023-03-22T04:25:59.689Z,18.05
2023-03-22T04:29:14.519Z,19.05
2023-03-22T04:32:26.331Z,19.20
2023-03-22T04:35:36.326Z,21.85
2023-03-22T04:38:40.440Z,19.73
2023-03-22T04:41:47.362Z,19.67
2023-03-22T04:44:50.801Z,20.38
2023-03-22T04:47:54.241Z,19.08
2023-03-22T04:50:58.224Z,18.70
2023-03-22T04:54:04.143Z,18.42
2023-03-22T04:57:08.104Z,19.33
2023-03-22T05:00:17.369Z,20.13
2023-03-22T05:03:21.666Z,20.63
2023-03-22T05:06:27.510Z,18.00
2023-03-22T05:09:41.007Z,17.45
2023-03-22T05:12:45.005Z,19.92
2023-03-22T05:15:59.859Z,18.50
2023-03-22T05:19:14.326Z,21.35
2023-03-22T05:22:22.497Z,21.38
2023-03-22T05:25:27.729Z,23.13
2023-03-22T05:28:31.961Z,19.80
2023-03-22T05:31:47.109Z,19.80
2023-03-22T05:34:50.484Z,18.58
2023-03-22T05:38:07.497Z,18.83
2023-03-22T05:41:13.983Z,18.58
2023-03-22T05:44:18.366Z,18.15
2023-03-22T05:47:44.707Z,16.10
2023-03-22T05:50:50.846Z,17.55
2023-03-22T05:53:54.555Z,16.13
2023-03-22T05:57:01.973Z,18.45
2023-03-22T06:00:13.333Z,17.73
2023-03-22T06:03:18.862Z,17.07
2023-03-22T06:06:51.696Z,14.25
2023-03-22T06:10:24.361Z,15.23
2023-03-22T06:13:27.843Z,23.17
2023-03-22T06:16:31.957Z,15.20
2023-03-22T06:19:35.812Z,16.77
2023-03-22T06:22:46.258Z,17.42
2023-03-22T06:25:53.811Z,18.85
2023-03-22T06:29:03.716Z,20.30
2023-03-22T06:32:09.262Z,22.67
2023-03-22T06:35:13.172Z,16.25
2023-03-22T06:38:19.487Z,14.13
2023-03-22T06:41:40.433Z,15.88
2023-03-22T06:44:57.215Z,17.60
2023-03-22T06:48:12.221Z,20.08
2023-03-22T06:51:28.395Z,17.27
2023-03-22T06:54:32.252Z,16.88
2023-03-22T06:57:36.220Z,18.08
2023-03-22T07:00:42.958Z,17.87
2023-03-22T07:03:46.433Z,15.85
2023-03-22T07:07:01.640Z,15.95
2023-03-22T07:10:09.036Z,16.90
2023-03-22T07:13:15.467Z,17.70
2023-03-22T07:16:20.635Z,14.60
2023-03-22T07:19:36.136Z,18.00
2023-03-22T07:22:46.468Z,18.25
2023-03-22T07:25:52.112Z,16.70
2023-03-22T07:29:04.212Z,15.20
2023-03-22T07:32:19.608Z,16.23
2023-03-22T07:35:38.488Z,15.68
2023-03-22T07:38:47.777Z,15.55
2023-03-22T07:42:02.333Z,14.80
2023-03-22T07:45:32.311Z,15.32
2023-03-22T07:48:57.464Z,15.83
2023-03-22T07:52:50.951Z,14.73
2023-03-22T07:55:55.372Z,18.75
2023-03-22T07:59:06.751Z,16.95
2023-03-22T08:02:12.150Z,14.23
2023-03-22T08:05:24.851Z,13.13
2023-03-22T08:08:37.753Z,13.73
2023-03-22T08:11:43.959Z,12.85
2023-03-22T08:14:57.451Z,14.02
2023-03-22T08:18:05.333Z,14.10
2023-03-22T08:21:18.487Z,14.90
2023-03-22T08:24:27.779Z,11.68
2023-03-22T08:27:38.902Z,12.45
2023-03-22T08:34:27.195Z,13.82
2023-03-22T08:37:30.781Z,15.20
2023-03-22T08:40:38.408Z,14.60
2023-03-22T08:43:43.405Z,14.95
2023-03-22T08:46:46.978Z,14.57
2023-03-22T08:49:56.959Z,14.07
2023-03-22T08:53:25.558Z,14.27
2023-03-22T08:56:48.700Z,16.60
2023-03-22T09:00:07.071Z,13.77
2023-03-22T09:03:23.077Z,14.65
2023-03-22T09:06:35.470Z,10.65
2023-03-22T09:09:41.464Z,13.03
2023-03-22T09:12:47.574Z,12.02
2023-03-22T09:16:11.244Z,14.68
2023-03-22T09:19:39.748Z,14.13
2023-03-22T09:22:44.156Z,13.65
2023-03-22T09:25:52.062Z,12.83
2023-03-22T09:29:00.097Z,12.85
2023-03-22T09:32:05.582Z,11.55
2023-03-22T09:35:11.564Z,12.13
2023-03-22T09:38:27.512Z,10.65
2023-03-22T09:41:36.532Z,9.77
2023-03-22T09:44:43.789Z,10.85
2023-03-22T09:47:57.937Z,12.63
2023-03-22T09:51:04.608Z,9.95
2023-03-22T09:54:32.219Z,11.52
2023-03-22T09:57:39.077Z,10.43
2023-03-22T10:00:51.807Z,9.25
2023-03-22T10:04:17.192Z,9.50
2023-03-22T10:07:42.287Z,8.93
2023-03-22T10:10:45.993Z,11.02
2023-03-22T10:14:06.438Z,9.30
2023-03-22T10:17:14.974Z,10.57
2023-03-22T10:20:40.642Z,10.90
2023-03-22T10:24:24.379Z,9.73
2023-03-22T10:27:34.527Z,9.88
2023-03-22T10:30:40.783Z,10.50
2023-03-22T10:34:02.076Z,9.68
2023-03-22T10:37:07.318Z,9.68
2023-03-22T10:40:19.918Z,9.25
2023-03-22T10:43:34.949Z,12.13
2023-03-22T10:46:41.546Z,13.17
2023-03-22T10:49:57.510Z,11.55
2023-03-22T10:53:28.072Z,11.30
2023-03-22T10:56:32.143Z,10.27
2023-03-22T10:59:51.786Z,11.32
2023-03-22T11:03:03.908Z,10.30
2023-03-22T11:06:21.043Z,8.50
2023-03-22T11:09:27.951Z,9.05
2023-03-22T11:12:34.796Z,9.30
2023-03-22T11:15:49.311Z,7.90
2023-03-22T11:19:01.233Z,8.83
2023-03-22T11:22:24.210Z,8.85
2023-03-22T11:25:34.476Z,6.63
2023-03-22T11:28:51.189Z,7.72
2023-03-22T11:31:57.893Z,5.93
2023-03-22T11:35:23.493Z,6.37
2023-03-22T11:38:40.141Z,5.88
2023-03-22T11:41:46.104Z,6.65
2023-03-22T11:44:49.729Z,6.75
2023-03-22T11:48:14.185Z,4.18
2023-03-22T11:51:26.721Z,5.33
2023-03-22T11:54:37.701Z,5.63
2023-03-22T11:57:42.556Z,4.95
2023-03-22T12:00:46.641Z,5.97
2023-03-22T12:03:56.035Z,4.95
2023-03-22T12:07:05.882Z,6.40
2023-03-22T12:10:25.415Z,5.28
2023-03-22T12:13:51.062Z,5.82
2023-03-22T12:17:19.760Z,4.72
2023-03-22T12:21:35.654Z,5.03
2023-03-22T12:24:42.884Z,5.20
2023-03-22T12:28:03.928Z,5.70
2023-03-22T12:31:14.577Z,4.65
2023-03-22T12:34:41.046Z,6.75
2023-03-22T12:37:48.410Z,9.75
2023-03-22T12:40:54.609Z,5.67
2023-03-22T12:44:03.613Z,4.35
2023-03-22T12:47:32.313Z,5.28
2023-03-22T12:50:51.384Z,3.38
2023-03-22T12:53:58.760Z,3.25
2023-03-22T12:57:02.300Z,6.13
2023-03-22T13:00:13.781Z,4.28
2023-03-22T13:03:21.125Z,5.15
2023-03-22T13:06:45.716Z,3.70
2023-03-22T13:09:50.822Z,4.30
2023-03-22T13:13:15.984Z,4.57
2023-03-22T13:16:22.910Z,3.78
2023-03-22T13:19:40.998Z,3.03
2023-03-22T13:22:50.441Z,4.38
2023-03-22T13:26:05.504Z,3.58
2023-03-22T13:29:17.615Z,4.30
2023-03-22T13:32:33.551Z,3.72
2023-03-22T13:35:53.975Z,4.47
2023-03-22T13:39:08.263Z,3.00
2023-03-22T13:42:22.526Z,3.17
2023-03-22T13:45:32.172Z,4.70
2023-03-22T13:48:44.714Z,4.75
2023-03-22T13:51:48.776Z,4.15
2023-03-22T13:54:54.793Z,3.13
2023-03-22T13:57:59.862Z,5.05
2023-03-22T14:01:15.517Z,4.73
2023-03-22T14:04:26.412Z,4.18
2023-03-22T14:07:47.161Z,3.80
2023-03-22T14:10:56.808Z,5.05
2023-03-22T14:14:12.519Z,4.60
2023-03-22T14:17:53.778Z,3.50
2023-03-22T14:21:06.352Z,4.15
